Olovjannaja, Russia
Current Conditions -  °F | °C
As of 8:30 AM on Sunday 26 Oct 2014 (Local Time) from UIAA Reporting Station
Clear Clear  
Wind Chill:   Ceiling: Unl
Heat Index:   Visibility: 6mi
Dew Point: -2°   Wind: 0mph
Humidity: 72%   Direction: NA
Pressure: 30.53"   Gusts: NA
Location:  50.95°N, 115.57°E
Report Text: UIAA 252330Z 00000MPS 9999 SKC M15/M19 Q1034 NOSIG RMK QFE71629CLRD70
Loading
Personal Weather Stations






























Interactive Weather Map
Tropical Storm Tracking
New forecast layout! Learn more

10-Day Weather Forecast

Advertisements
Track Severe Weather on mobile